Latest Weather Observations for Gingin Airport

IDW60801

Issued at 8:35 pm WST Saturday 1 November 2014 (issued every 30 minutes, with the page automatically refreshed every 10 minutes)

About weather observations | Map of weather stations | Latest weather observations for WA | Other Formats
Station Details ID: 009178 Name: GINGIN AERO Lat: -31.46 Lon: 115.86 Height: 73.0 m
Data from the previous 72 hours. | See also: Recent months at Gingin Airport
Date/Time
WST
Temp
°C
App
Temp
°C
Dew
Point
Rel
Hum
%
Delta-T
°C
Wind Press
QNH
hPa
Press
MSL
hPa
Rain
since 9 am
mm
Dir
 
Spd
km/h
Gust
km/h
Spd
kts
Gust
kts
01/08:30pm 18.1 16.5 8.7 54 4.9 WSW 7 7 4 4 1015.2 1015.0 0.0
01/08:00pm 19.7 18.2 9.0 50 5.6 SW 7 9 4 5 1015.1 1014.9 0.0
01/07:30pm 20.8 18.8 8.8 46 6.3 S 9 11 5 6 1015.0 1014.8 0.0
01/07:00pm 22.2 19.1 7.2 38 7.8 S 13 17 7 9 1014.7 1014.5 0.0
01/06:30pm 23.9 19.2 6.2 32 9.1 SW 20 26 11 14 1014.1 1013.9 0.0
01/06:00pm 25.3 19.7 5.5 28 10.1 SW 24 32 13 17 1013.7 1013.5 0.0
01/05:30pm 26.9 21.0 5.8 26 11.0 SW 26 33 14 18 1013.3 1013.1 0.0
01/05:00pm 27.5 21.6 5.7 25 11.3 SSW 26 32 14 17 1013.1 1012.9 0.0
01/04:30pm 29.0 22.9 6.4 24 12.0 SW 28 35 15 19 1013.0 1012.8 0.0
01/04:00pm 30.6 26.5 0.1 14 14.7 N 11 20 6 11 1013.1 1012.9 0.0
01/03:30pm 31.2 26.1 0.6 14 14.9 N 17 22 9 12 1013.3 1013.1 0.0
01/03:00pm 31.2 27.9 2.4 16 14.5 SE 9 19 5 10 1013.5 1013.3 0.0
01/02:30pm 30.3 26.6 2.5 17 13.9 E 11 22 6 12 1013.9 1013.7 0.0
01/02:00pm 30.1 24.7 2.4 17 13.8 NE 20 35 11 19 1014.4 1014.2 0.0
01/01:30pm 29.0 25.0 3.1 19 13.0 NNW 13 20 7 11 1015.0 1014.8 0.0
01/01:00pm 28.6 24.3 3.5 20 12.6 N 15 28 8 15 1015.4 1015.2 0.0
01/12:30pm 28.6 25.1 3.5 20 12.7 NE 11 26 6 14 1015.8 1015.6 0.0
01/12:00pm 27.2 23.5 4.3 23 11.6 N 13 20 7 11 1016.3 1016.1 0.0
01/11:30am 27.3 22.0 5.0 24 11.4 NE 22 30 12 16 1016.8 1016.6 0.0
01/11:00am 26.6 20.8 6.1 27 10.7 NE 26 35 14 19 1016.9 1016.7 0.0
01/10:30am 25.4 20.1 6.6 30 9.8 ENE 24 35 13 19 1017.7 1017.4 0.0
01/10:00am 24.4 19.9 7.1 33 9.0 ENE 20 28 11 15 1018.2 1017.9 0.0
01/09:30am 23.1 17.9 7.2 36 8.3 ENE 24 33 13 18 1018.2 1017.9 0.0
01/09:00am 22.2 16.6 7.2 38 7.7 ENE 26 33 14 18 1018.3 1018.0 -
01/08:30am 21.0 15.0 6.9 40 7.2 ENE 28 37 15 20 1018.2 1017.9 -
01/08:00am 19.7 14.6 7.8 46 6.1 ENE 24 33 13 18 1018.4 1018.1 -
01/07:30am 17.8 12.2 7.0 49 5.4 ENE 26 33 14 18 1018.4 1018.2 -
01/07:00am 17.0 11.0 7.1 52 4.9 E 28 37 15 20 1018.3 1018.1 -
01/06:30am 15.9 11.3 6.6 54 4.6 E 20 28 11 15 1018.3 1018.1 -
01/06:00am 15.0 10.6 6.6 57 4.1 E 19 30 10 16 1018.0 1017.8 -
01/05:30am 14.1 9.5 6.7 61 3.6 E 20 26 11 14 1017.6 1017.4 -
01/05:00am 13.9 9.0 6.7 62 3.5 E 22 28 12 15 1017.3 1017.1 -
01/04:30am 14.3 9.1 7.1 62 3.5 E 24 30 13 16 1016.8 1016.7 -
01/04:00am 13.7 8.7 7.9 68 2.9 E 24 28 13 15 1016.6 1016.5 -
01/03:30am 12.0 9.0 10.6 91 0.7 ESE 17 22 9 12 1016.7 1016.6 -
01/03:00am 10.4 7.7 10.4 100 0.0 SE 15 19 8 10 1016.7 1016.6 -
01/02:30am 9.7 7.2 9.7 100 0.0 SE 13 15 7 8 1016.8 1016.7 -
01/02:00am 9.9 8.2 9.9 100 0.0 ESE 9 13 5 7 1016.8 1016.7 -
01/01:30am 9.7 8.3 9.7 100 0.0 ESE 7 9 4 5 1016.7 1016.6 -
01/01:00am 10.7 9.2 10.7 100 0.0 ESE 9 11 5 6 1016.8 1016.7 -
01/12:30am 9.7 8.3 9.7 100 0.0 SSE 7 9 4 5 1017.0 1016.9 -
01/12:00am 10.4 9.4 10.4 100 0.0 SSE 6 7 3 4 1017.2 1017.0 -
 
Date/Time
WST
Temp
°C
App
Temp
°C
Dew
Point
Rel
Hum
%
Delta-T
°C
Wind Press
QNH
hPa
Press
MSL
hPa
Rain
since 9 am
mm
Dir
 
Spd
km/h
Gust
km/h
Spd
kts
Gust
kts
31/11:30pm 10.3 10.4 10.3 100 0.0 CALM 0 0 0 0 1017.6 1017.4 -
31/11:00pm 10.3 9.0 10.1 99 0.1 SSE 7 9 4 5 1017.7 1017.5 0.0
31/10:30pm 12.0 12.2 11.7 98 0.2 SSE 2 6 1 3 1018.1 1017.9 0.0
31/10:00pm 13.2 13.2 12.3 94 0.5 SSE 4 7 2 4 1018.0 1017.8 0.0
31/09:30pm 13.3 12.9 11.2 87 1.1 SSE 4 6 2 3 1018.1 1017.9 0.0
31/09:00pm 15.1 13.8 12.4 84 1.5 SW 11 13 6 7 1018.1 1017.9 0.0
31/08:30pm 15.9 14.6 12.5 80 1.9 SW 11 13 6 7 1018.1 1017.9 0.0
31/08:00pm 16.5 15.1 12.3 76 2.3 SW 11 13 6 7 1017.9 1017.7 0.0
31/07:30pm 16.9 15.1 12.0 73 2.7 SW 13 17 7 9 1017.8 1017.6 0.0
31/07:00pm 17.2 14.8 11.5 69 3.1 SW 15 20 8 11 1017.8 1017.6 0.0
31/06:30pm 17.8 14.5 10.9 64 3.7 SW 19 24 10 13 1017.5 1017.3 0.0
31/06:00pm 18.6 15.1 10.2 58 4.5 WSW 19 22 10 12 1017.2 1017.0 0.0
31/05:30pm 19.7 15.9 9.9 53 5.3 SW 20 28 11 15 1016.6 1016.5 0.0
31/05:00pm 21.1 17.4 10.0 49 6.0 SW 20 28 11 15 1016.4 1016.3 0.0
31/04:30pm 21.9 18.4 10.1 47 6.4 W 19 24 10 13 1016.2 1016.1 0.0
31/04:00pm 22.2 18.3 9.4 44 6.9 W 20 22 11 12 1016.0 1015.9 0.0
31/03:30pm 22.3 19.0 9.5 44 6.9 SW 17 22 9 12 1015.9 1015.8 0.0
31/03:00pm 22.1 18.4 9.3 44 6.9 W 19 26 10 14 1015.9 1015.8 0.0
31/02:30pm 21.7 17.1 8.2 42 7.1 W 22 32 12 17 1016.0 1015.9 0.0
31/02:00pm 22.8 18.6 8.1 39 7.8 SW 20 30 11 16 1016.0 1015.9 0.0
31/01:30pm 22.9 19.7 2.9 27 9.6 WSW 9 19 5 10 1016.3 1016.2 0.0
31/01:00pm 22.5 19.3 3.1 28 9.3 NNW 9 24 5 13 1016.4 1016.3 0.0
31/12:30pm 22.1 17.7 4.6 32 8.6 WSW 17 26 9 14 1016.5 1016.4 0.0
31/12:00pm 22.7 19.2 7.3 37 8.0 W 15 22 8 12 1016.7 1016.6 0.0
31/11:30am 22.1 19.3 8.6 42 7.2 SSW 13 26 7 14 1016.7 1016.6 0.0
31/11:00am 21.5 19.6 9.1 45 6.6 W 9 17 5 9 1016.9 1016.8 0.0
31/10:30am 20.5 16.6 8.8 47 6.2 W 19 24 10 13 1017.3 1017.1 0.0
31/10:00am 19.9 16.6 9.5 51 5.5 S 17 24 9 13 1017.3 1017.1 0.0
31/09:30am 19.1 16.0 10.4 57 4.7 S 17 22 9 12 1017.4 1017.2 0.0
31/09:00am 18.2 14.7 10.8 62 4.0 SSE 20 26 11 14 1017.3 1017.1 0.4
31/08:30am 18.2 15.1 12.2 68 3.3 S 20 30 11 16 1017.2 1017.0 0.4
31/08:00am 16.6 12.9 12.6 77 2.2 S 24 32 13 17 1017.0 1016.9 0.4
31/07:30am 16.3 12.9 13.6 84 1.5 S 24 32 13 17 1016.7 1016.6 0.4
31/07:00am 15.0 13.8 15.0 100 0.0 S 15 20 8 11 1016.3 1016.2 0.4
31/06:30am 14.4 12.6 14.4 100 0.0 SSE 17 24 9 13 1016.2 1016.1 0.4
31/06:00am 14.3 12.1 14.3 100 0.0 SSE 19 32 10 17 1015.9 1015.8 0.4
31/05:30am 15.3 14.2 15.3 100 0.0 S 15 24 8 13 1015.3 1015.2 0.0
31/05:00am 15.3 15.8 15.1 99 0.1 SW 6 17 3 9 1014.9 1014.8 0.0
31/04:30am 13.6 14.4 12.7 94 0.5 CALM 0 6 0 3 1014.5 1014.4 0.0
31/04:00am 14.0 13.5 12.2 89 1.0 W 6 7 3 4 1014.1 1014.0 0.0
31/03:30am 14.5 13.9 12.2 86 1.3 W 7 9 4 5 1014.1 1014.0 0.0
31/03:00am 13.8 13.0 11.1 84 1.4 W 6 7 3 4 1014.2 1014.1 0.0
31/02:30am 14.6 13.6 11.0 79 1.9 WSW 7 7 4 4 1014.2 1014.1 0.0
31/02:00am 15.4 14.0 10.8 74 2.4 SW 9 13 5 7 1014.2 1014.1 0.0
31/01:30am 16.1 13.3 11.3 73 2.6 SW 17 22 9 12 1014.2 1014.1 0.0
31/01:00am 15.6 15.9 15.0 96 0.3 WSW 7 9 4 5 1014.4 1014.3 0.0
31/12:30am 15.4 15.0 15.2 99 0.1 WSW 11 13 6 7 1014.9 1014.8 0.0
31/12:00am 16.1 14.4 14.6 91 0.9 SW 17 22 9 12 1015.0 1014.9 0.0
 
Date/Time
WST
Temp
°C
App
Temp
°C
Dew
Point
Rel
Hum
%
Delta-T
°C
Wind Press
QNH
hPa
Press
MSL
hPa
Rain
since 9 am
mm
Dir
 
Spd
km/h
Gust
km/h
Spd
kts
Gust
kts
30/11:30pm 16.3 15.1 12.7 79 2.0 WSW 11 17 6 9 1015.2 1015.1 0.0
30/11:00pm 16.3 14.8 14.1 87 1.3 SSW 15 19 8 10 1015.5 1015.4 0.0
30/10:30pm 17.0 14.4 13.9 82 1.8 WSW 20 37 11 20 1015.6 1015.5 0.0
30/10:00pm 17.3 15.3 11.6 69 3.1 SW 13 19 7 10 1015.5 1015.4 0.0
30/09:30pm 17.4 13.4 11.9 70 3.0 SW 24 32 13 17 1015.8 1015.7 0.0
30/09:00pm 17.5 15.2 10.6 64 3.7 WSW 13 19 7 10 1015.8 1015.7 0.0
30/08:30pm 17.6 14.4 10.0 61 4.0 SW 17 24 9 13 1015.7 1015.6 0.0
30/08:00pm 17.5 13.9 9.7 60 4.1 WSW 19 24 10 13 1015.6 1015.5 0.0
30/07:30pm 17.6 13.8 9.8 60 4.1 WSW 20 28 11 15 1015.4 1015.3 0.0
30/07:00pm 17.7 13.2 10.1 61 4.0 SW 24 35 13 19 1015.1 1015.0 0.0
30/06:30pm 17.9 13.9 10.5 62 4.0 WSW 22 30 12 16 1014.8 1014.7 0.0
30/06:00pm 17.9 13.7 11.2 65 3.6 WSW 24 33 13 18 1014.5 1014.4 0.0
30/05:30pm 18.4 14.0 10.5 60 4.3 WSW 24 32 13 17 1014.4 1014.3 0.0
30/05:00pm 18.6 13.2 10.9 61 4.2 SW 30 35 16 19 1014.4 1014.3 0.0
30/04:30pm 18.9 13.2 11.2 61 4.2 WSW 32 39 17 21 1014.1 1014.0 0.0
30/04:00pm 19.4 13.9 10.4 56 4.9 WSW 30 39 16 21 1014.1 1014.0 0.0
30/03:30pm 20.5 15.8 10.6 53 5.4 WSW 26 37 14 20 1013.9 1013.8 0.0
30/03:00pm 20.3 15.0 11.2 56 5.0 WSW 30 41 16 22 1013.7 1013.6 0.0
30/02:30pm 20.8 15.1 11.2 54 5.3 SSW 32 43 17 23 1013.7 1013.6 0.0
30/02:00pm 20.9 16.5 11.8 56 5.1 WSW 26 33 14 18 1013.7 1013.6 0.0
30/01:30pm 22.1 17.8 12.1 53 5.7 WSW 26 33 14 18 1013.7 1013.6 0.0
30/01:00pm 21.1 16.6 11.4 54 5.4 SW 26 35 14 19 1013.9 1013.8 0.0
30/12:30pm 21.7 17.3 11.7 53 5.6 WSW 26 41 14 22 1014.1 1014.0 0.0
30/12:00pm 21.7 16.9 11.7 53 5.6 WSW 28 39 15 21 1014.2 1014.1 0.0
30/11:30am 21.7 18.4 12.8 57 5.1 SW 22 33 12 18 1014.1 1014.0 0.0
30/11:00am 21.1 18.9 13.3 61 4.5 SW 17 26 9 14 1014.0 1013.9 0.0
30/10:30am 20.8 18.1 13.5 63 4.2 SW 20 26 11 14 1014.2 1014.1 0.0
30/10:00am 19.6 17.3 14.6 73 2.9 SW 20 28 11 15 1014.6 1014.5 0.0
30/09:30am 19.5 17.3 14.3 72 3.0 SW 19 26 10 14 1014.7 1014.6 0.0
30/09:00am 19.1 16.3 14.4 74 2.7 WSW 22 30 12 16 1014.7 1014.6 0.0
30/08:30am 18.9 17.2 14.6 76 2.5 SW 17 24 9 13 1014.6 1014.5 0.0
30/08:00am 18.1 16.6 15.2 83 1.7 SW 17 20 9 11 1014.7 1014.6 0.0
30/07:30am 17.7 16.1 16.0 90 1.0 SSW 19 26 10 14 1014.7 1014.6 0.0
30/07:00am 17.0 15.7 15.9 93 0.6 SW 17 24 9 13 1014.6 1014.5 0.0
30/06:30am 16.8 15.6 16.2 96 0.4 SW 17 20 9 11 1014.4 1014.3 0.0
30/06:00am 16.7 15.5 16.1 96 0.4 SW 17 22 9 12 1014.2 1014.1 0.0
30/05:30am 16.6 15.8 16.1 97 0.3 SW 15 20 8 11 1014.1 1014.0 0.0
30/05:00am 16.6 15.8 16.1 97 0.3 SW 15 24 8 13 1014.0 1013.9 0.0
30/04:30am 16.7 15.9 16.2 97 0.3 SW 15 22 8 12 1013.7 1013.6 0.0
30/04:00am 16.8 16.2 16.6 99 0.1 SW 15 26 8 14 1013.8 1013.7 0.0
30/03:30am 16.9 16.0 16.9 100 0.0 SW 17 22 9 12 1013.7 1013.6 0.0
30/03:00am 16.9 16.4 16.9 100 0.0 SSW 15 20 8 11 1013.7 1013.6 0.0
30/02:30am 16.8 15.9 16.8 100 0.0 SSW 17 22 9 12 1013.4 1013.3 0.0
30/02:00am 16.7 16.1 16.7 100 0.0 SSW 15 22 8 12 1013.4 1013.3 0.0
30/01:30am 16.9 16.8 16.9 100 0.0 SSW 13 20 7 11 1013.6 1013.5 0.0
30/01:00am 16.3 15.9 16.3 100 0.0 SW 13 19 7 10 1013.6 1013.5 0.0
30/12:30am 16.3 16.3 16.3 100 0.0 SW 11 17 6 9 1013.6 1013.5 0.0
30/12:00am 16.3 16.3 16.3 100 0.0 SW 11 15 6 8 1013.9 1013.8 0.0
 
Date/Time
WST
Temp
°C
App
Temp
°C
Dew
Point
Rel
Hum
%
Delta-T
°C
Wind Press
QNH
hPa
Press
MSL
hPa
Rain
since 9 am
mm
Dir
 
Spd
km/h
Gust
km/h
Spd
kts
Gust
kts
29/11:30pm 16.0 15.9 16.0 100 0.0 WSW 11 17 6 9 1014.2 1014.1 0.0
29/11:00pm 15.6 15.4 15.6 100 0.0 WSW 11 13 6 7 1014.2 1014.1 0.0
29/10:30pm 16.5 16.2 16.5 100 0.0 WSW 13 17 7 9 1014.2 1014.1 0.0
29/10:00pm 16.7 16.9 16.7 100 0.0 SW 11 13 6 7 1014.3 1014.2 0.0
29/09:30pm 17.0 17.3 17.0 100 0.0 SSW 11 13 6 7 1014.1 1014.0 0.0
29/09:00pm 17.4 17.9 17.4 100 0.0 SW 11 17 6 9 1014.1 1014.0 0.0

Other Formats:

Comma delimited format used in spreadsheet applications
http://www.bom.gov.au/fwo/IDW60801/IDW60801.95612.axf

JavaScript Object Notation format (JSON) in row-major order
http://www.bom.gov.au/fwo/IDW60801/IDW60801.95612.json